sensor_id;sensor_type;location;lat;lon;timestamp;temperature;humidity
1413;DHT22;701;52.526;13.408;2023-07-31T00:02:15;17.20;27.10
1413;DHT22;701;52.526;13.408;2023-07-31T00:04:40;17.20;27.20
1413;DHT22;701;52.526;13.408;2023-07-31T00:07:06;17.10;27.20
1413;DHT22;701;52.526;13.408;2023-07-31T00:09:33;17.00;27.20
1413;DHT22;701;52.526;13.408;2023-07-31T00:11:59;17.00;27.20
1413;DHT22;701;52.526;13.408;2023-07-31T00:14:25;16.90;27.30
1413;DHT22;701;52.526;13.408;2023-07-31T00:16:50;16.80;27.40
1413;DHT22;701;52.526;13.408;2023-07-31T00:19:16;16.70;27.60
1413;DHT22;701;52.526;13.408;2023-07-31T00:21:44;16.70;27.70
1413;DHT22;701;52.526;13.408;2023-07-31T00:24:10;16.60;28.00
1413;DHT22;701;52.526;13.408;2023-07-31T00:26:36;16.60;28.30
1413;DHT22;701;52.526;13.408;2023-07-31T00:29:01;16.60;28.10
1413;DHT22;701;52.526;13.408;2023-07-31T00:31:27;16.60;28.40
1413;DHT22;701;52.526;13.408;2023-07-31T00:33:53;16.60;28.50
1413;DHT22;701;52.526;13.408;2023-07-31T00:36:19;16.60;28.50
1413;DHT22;701;52.526;13.408;2023-07-31T00:38:44;16.60;28.50
1413;DHT22;701;52.526;13.408;2023-07-31T00:41:10;16.60;29.00
1413;DHT22;701;52.526;13.408;2023-07-31T00:43:36;16.60;28.50
1413;DHT22;701;52.526;13.408;2023-07-31T00:46:02;16.60;28.50
1413;DHT22;701;52.526;13.408;2023-07-31T00:48:28;16.60;28.70
1413;DHT22;701;52.526;13.408;2023-07-31T00:50:55;16.60;28.80
1413;DHT22;701;52.526;13.408;2023-07-31T00:53:21;16.60;28.90
1413;DHT22;701;52.526;13.408;2023-07-31T00:55:46;16.70;29.20
1413;DHT22;701;52.526;13.408;2023-07-31T00:58:13;16.70;29.40
1413;DHT22;701;52.526;13.408;2023-07-31T01:00:38;16.70;29.70
1413;DHT22;701;52.526;13.408;2023-07-31T01:03:04;16.80;30.00
1413;DHT22;701;52.526;13.408;2023-07-31T01:05:46;16.80;30.00
1413;DHT22;701;52.526;13.408;2023-07-31T01:11:14;16.90;30.00
1413;DHT22;701;52.526;13.408;2023-07-31T01:13:42;17.00;30.20
1413;DHT22;701;52.526;13.408;2023-07-31T01:16:07;17.00;29.80
1413;DHT22;701;52.526;13.408;2023-07-31T01:18:33;17.00;29.90
1413;DHT22;701;52.526;13.408;2023-07-31T01:24:23;17.10;30.10
1413;DHT22;701;52.526;13.408;2023-07-31T01:27:04;17.20;30.00
1413;DHT22;701;52.526;13.408;2023-07-31T01:32:28;17.20;30.00
1413;DHT22;701;52.526;13.408;2023-07-31T01:34:55;17.20;30.10
1413;DHT22;701;52.526;13.408;2023-07-31T01:37:22;17.30;30.10
1413;DHT22;701;52.526;13.408;2023-07-31T01:39:53;17.30;30.20
1413;DHT22;701;52.526;13.408;2023-07-31T01:42:18;17.30;30.20
1413;DHT22;701;52.526;13.408;2023-07-31T01:44:44;17.30;30.40
1413;DHT22;701;52.526;13.408;2023-07-31T01:47:10;17.30;30.10
1413;DHT22;701;52.526;13.408;2023-07-31T01:49:36;17.30;30.00
1413;DHT22;701;52.526;13.408;2023-07-31T01:52:02;17.30;30.00
1413;DHT22;701;52.526;13.408;2023-07-31T01:54:28;17.30;30.00
1413;DHT22;701;52.526;13.408;2023-07-31T01:56:53;17.30;30.00
1413;DHT22;701;52.526;13.408;2023-07-31T01:59:19;17.40;30.00
1413;DHT22;701;52.526;13.408;2023-07-31T02:01:45;17.40;30.00
1413;DHT22;701;52.526;13.408;2023-07-31T02:04:11;17.40;29.80
1413;DHT22;701;52.526;13.408;2023-07-31T02:06:38;17.50;29.80
1413;DHT22;701;52.526;13.408;2023-07-31T02:09:05;17.50;29.90
1413;DHT22;701;52.526;13.408;2023-07-31T02:11:31;17.50;30.40
1413;DHT22;701;52.526;13.408;2023-07-31T02:13:57;17.50;30.00
1413;DHT22;701;52.526;13.408;2023-07-31T02:16:23;17.50;29.80
1413;DHT22;701;52.526;13.408;2023-07-31T02:18:48;17.50;29.60
1413;DHT22;701;52.526;13.408;2023-07-31T02:21:14;17.50;29.60
1413;DHT22;701;52.526;13.408;2023-07-31T02:23:40;17.60;29.80
1413;DHT22;701;52.526;13.408;2023-07-31T02:26:06;17.60;29.70
1413;DHT22;701;52.526;13.408;2023-07-31T02:28:31;17.60;29.80
1413;DHT22;701;52.526;13.408;2023-07-31T02:30:57;17.60;29.30
1413;DHT22;701;52.526;13.408;2023-07-31T02:33:23;17.60;29.20
1413;DHT22;701;52.526;13.408;2023-07-31T02:35:49;17.60;29.20
1413;DHT22;701;52.526;13.408;2023-07-31T02:38:15;17.60;29.20
1413;DHT22;701;52.526;13.408;2023-07-31T02:40:41;17.60;29.20
1413;DHT22;701;52.526;13.408;2023-07-31T02:43:07;17.60;29.20
1413;DHT22;701;52.526;13.408;2023-07-31T02:45:33;17.50;29.10
1413;DHT22;701;52.526;13.408;2023-07-31T02:47:59;17.50;29.10
1413;DHT22;701;52.526;13.408;2023-07-31T02:50:25;17.50;29.10
1413;DHT22;701;52.526;13.408;2023-07-31T02:52:53;17.50;29.10
1413;DHT22;701;52.526;13.408;2023-07-31T02:55:18;17.50;29.10
1413;DHT22;701;52.526;13.408;2023-07-31T02:57:44;17.50;29.10
1413;DHT22;701;52.526;13.408;2023-07-31T03:00:10;17.50;29.10
1413;DHT22;701;52.526;13.408;2023-07-31T03:02:36;17.50;29.10
1413;DHT22;701;52.526;13.408;2023-07-31T03:05:02;17.40;29.00
1413;DHT22;701;52.526;13.408;2023-07-31T03:07:28;17.50;29.10
1413;DHT22;701;52.526;13.408;2023-07-31T03:09:55;17.40;29.00
1413;DHT22;701;52.526;13.408;2023-07-31T03:12:22;17.50;29.10
1413;DHT22;701;52.526;13.408;2023-07-31T03:14:48;17.50;29.10
1413;DHT22;701;52.526;13.408;2023-07-31T03:17:14;17.40;29.20
1413;DHT22;701;52.526;13.408;2023-07-31T03:19:40;17.50;29.30
1413;DHT22;701;52.526;13.408;2023-07-31T03:22:06;17.40;29.60
1413;DHT22;701;52.526;13.408;2023-07-31T03:24:31;17.40;29.70
1413;DHT22;701;52.526;13.408;2023-07-31T03:26:57;17.40;29.90
1413;DHT22;701;52.526;13.408;2023-07-31T03:29:23;17.40;29.80
1413;DHT22;701;52.526;13.408;2023-07-31T03:31:49;17.40;30.00
1413;DHT22;701;52.526;13.408;2023-07-31T03:34:15;17.40;30.20
1413;DHT22;701;52.526;13.408;2023-07-31T03:36:40;17.40;30.30
1413;DHT22;701;52.526;13.408;2023-07-31T03:39:07;17.40;30.30
1413;DHT22;701;52.526;13.408;2023-07-31T03:41:32;17.40;30.30
1413;DHT22;701;52.526;13.408;2023-07-31T03:43:58;17.40;30.30
1413;DHT22;701;52.526;13.408;2023-07-31T03:46:24;17.40;30.70
1413;DHT22;701;52.526;13.408;2023-07-31T03:48:50;17.40;30.70
1413;DHT22;701;52.526;13.408;2023-07-31T03:51:17;17.40;30.60
1413;DHT22;701;52.526;13.408;2023-07-31T03:53:44;17.40;30.50
1413;DHT22;701;52.526;13.408;2023-07-31T03:56:10;17.40;30.40
1413;DHT22;701;52.526;13.408;2023-07-31T03:58:36;17.40;30.40
1413;DHT22;701;52.526;13.408;2023-07-31T04:01:03;17.40;30.60
1413;DHT22;701;52.526;13.408;2023-07-31T04:03:29;17.40;30.50
1413;DHT22;701;52.526;13.408;2023-07-31T04:05:55;17.40;30.40
1413;DHT22;701;52.526;13.408;2023-07-31T04:08:22;17.40;30.10
1413;DHT22;701;52.526;13.408;2023-07-31T04:10:48;17.40;30.00
1413;DHT22;701;52.526;13.408;2023-07-31T04:13:14;17.50;30.00
1413;DHT22;701;52.526;13.408;2023-07-31T04:15:40;17.50;30.00
1413;DHT22;701;52.526;13.408;2023-07-31T04:18:06;17.50;29.80
1413;DHT22;701;52.526;13.408;2023-07-31T04:20:32;17.50;29.80
1413;DHT22;701;52.526;13.408;2023-07-31T04:22:57;17.50;29.80
1413;DHT22;701;52.526;13.408;2023-07-31T04:25:23;17.60;29.70
1413;DHT22;701;52.526;13.408;2023-07-31T04:27:49;17.60;29.60
1413;DHT22;701;52.526;13.408;2023-07-31T04:30:15;17.60;29.50
1413;DHT22;701;52.526;13.408;2023-07-31T04:32:41;17.70;29.90
1413;DHT22;701;52.526;13.408;2023-07-31T04:35:07;17.70;29.20
1413;DHT22;701;52.526;13.408;2023-07-31T04:37:33;17.70;29.20
1413;DHT22;701;52.526;13.408;2023-07-31T04:39:59;17.70;29.20
1413;DHT22;701;52.526;13.408;2023-07-31T04:42:24;17.80;29.30
1413;DHT22;701;52.526;13.408;2023-07-31T04:44:50;17.80;29.30
1413;DHT22;701;52.526;13.408;2023-07-31T04:47:16;17.80;29.30
1413;DHT22;701;52.526;13.408;2023-07-31T04:49:42;17.80;29.10
1413;DHT22;701;52.526;13.408;2023-07-31T04:52:07;17.80;29.00
1413;DHT22;701;52.526;13.408;2023-07-31T04:54:33;17.90;28.90
1413;DHT22;701;52.526;13.408;2023-07-31T04:56:59;17.90;28.80
1413;DHT22;701;52.526;13.408;2023-07-31T04:59:24;17.90;28.70
1413;DHT22;701;52.526;13.408;2023-07-31T05:01:50;18.00;28.70
1413;DHT22;701;52.526;13.408;2023-07-31T05:04:16;18.00;29.10
1413;DHT22;701;52.526;13.408;2023-07-31T05:06:42;18.00;28.50
1413;DHT22;701;52.526;13.408;2023-07-31T05:09:08;18.10;29.10
1413;DHT22;701;52.526;13.408;2023-07-31T05:11:35;18.10;28.40
1413;DHT22;701;52.526;13.408;2023-07-31T05:14:00;18.20;28.60
1413;DHT22;701;52.526;13.408;2023-07-31T05:16:29;18.30;28.70
1413;DHT22;701;52.526;13.408;2023-07-31T05:18:55;18.40;28.50
1413;DHT22;701;52.526;13.408;2023-07-31T05:21:21;18.50;28.40
1413;DHT22;701;52.526;13.408;2023-07-31T05:23:47;18.60;28.10
1413;DHT22;701;52.526;13.408;2023-07-31T05:26:14;18.70;27.90
1413;DHT22;701;52.526;13.408;2023-07-31T05:28:40;18.70;27.70
1413;DHT22;701;52.526;13.408;2023-07-31T05:31:06;18.80;27.30
1413;DHT22;701;52.526;13.408;2023-07-31T05:33:33;18.80;27.10
1413;DHT22;701;52.526;13.408;2023-07-31T05:35:58;18.80;27.00
1413;DHT22;701;52.526;13.408;2023-07-31T05:38:24;18.90;26.90
1413;DHT22;701;52.526;13.408;2023-07-31T05:40:50;19.00;26.70
1413;DHT22;701;52.526;13.408;2023-07-31T05:43:16;19.00;26.50
1413;DHT22;701;52.526;13.408;2023-07-31T05:45:44;19.00;26.50
1413;DHT22;701;52.526;13.408;2023-07-31T05:48:10;19.10;26.50
1413;DHT22;701;52.526;13.408;2023-07-31T05:50:36;19.10;26.30
1413;DHT22;701;52.526;13.408;2023-07-31T05:53:04;19.10;26.00
1413;DHT22;701;52.526;13.408;2023-07-31T05:55:30;19.10;26.00
1413;DHT22;701;52.526;13.408;2023-07-31T05:57:56;19.10;25.90
1413;DHT22;701;52.526;13.408;2023-07-31T06:00:22;19.20;25.90
1413;DHT22;701;52.526;13.408;2023-07-31T06:02:48;19.20;25.80
1413;DHT22;701;52.526;13.408;2023-07-31T06:05:14;19.20;25.80
1413;DHT22;701;52.526;13.408;2023-07-31T06:07:40;19.30;25.80
1413;DHT22;701;52.526;13.408;2023-07-31T06:10:06;19.30;25.60
1413;DHT22;701;52.526;13.408;2023-07-31T06:12:33;19.30;25.50
1413;DHT22;701;52.526;13.408;2023-07-31T06:14:58;19.40;25.60
1413;DHT22;701;52.526;13.408;2023-07-31T06:17:24;19.40;25.60
1413;DHT22;701;52.526;13.408;2023-07-31T06:19:51;19.50;25.70
1413;DHT22;701;52.526;13.408;2023-07-31T06:22:17;19.60;25.60
1413;DHT22;701;52.526;13.408;2023-07-31T06:24:43;19.60;25.30
1413;DHT22;701;52.526;13.408;2023-07-31T06:27:10;19.70;25.30
1413;DHT22;701;52.526;13.408;2023-07-31T06:29:36;19.70;25.20
1413;DHT22;701;52.526;13.408;2023-07-31T06:32:02;19.70;25.20
1413;DHT22;701;52.526;13.408;2023-07-31T06:34:28;19.70;25.00
1413;DHT22;701;52.526;13.408;2023-07-31T06:36:55;19.70;24.90
1413;DHT22;701;52.526;13.408;2023-07-31T06:39:21;19.70;24.90
1413;DHT22;701;52.526;13.408;2023-07-31T06:41:47;19.80;24.90
1413;DHT22;701;52.526;13.408;2023-07-31T06:44:13;20.00;25.20
1413;DHT22;701;52.526;13.408;2023-07-31T06:46:39;20.10;24.80
1413;DHT22;701;52.526;13.408;2023-07-31T06:49:05;20.20;24.50
1413;DHT22;701;52.526;13.408;2023-07-31T06:51:31;20.30;24.20
1413;DHT22;701;52.526;13.408;2023-07-31T06:53:57;20.40;23.90
1413;DHT22;701;52.526;13.408;2023-07-31T06:56:23;20.40;23.80
1413;DHT22;701;52.526;13.408;2023-07-31T06:58:49;20.50;23.90
1413;DHT22;701;52.526;13.408;2023-07-31T07:01:15;20.50;23.70
1413;DHT22;701;52.526;13.408;2023-07-31T07:03:41;20.50;23.50
1413;DHT22;701;52.526;13.408;2023-07-31T07:06:06;20.60;23.60
1413;DHT22;701;52.526;13.408;2023-07-31T07:08:32;20.80;23.00
1413;DHT22;701;52.526;13.408;2023-07-31T07:10:58;20.80;22.40
1413;DHT22;701;52.526;13.408;2023-07-31T07:13:24;20.90;22.40
1413;DHT22;701;52.526;13.408;2023-07-31T07:15:50;20.90;22.10
1413;DHT22;701;52.526;13.408;2023-07-31T07:18:17;20.80;21.90
1413;DHT22;701;52.526;13.408;2023-07-31T07:20:50;20.70;21.80
1413;DHT22;701;52.526;13.408;2023-07-31T07:23:15;20.60;21.80
1413;DHT22;701;52.526;13.408;2023-07-31T07:25:42;20.60;22.10
1413;DHT22;701;52.526;13.408;2023-07-31T07:28:09;20.70;22.20
1413;DHT22;701;52.526;13.408;2023-07-31T07:30:34;20.80;21.90
1413;DHT22;701;52.526;13.408;2023-07-31T07:33:00;21.00;21.50
1413;DHT22;701;52.526;13.408;2023-07-31T07:35:26;21.20;21.40
1413;DHT22;701;52.526;13.408;2023-07-31T07:37:52;21.30;21.00
1413;DHT22;701;52.526;13.408;2023-07-31T07:40:19;21.20;20.90
1413;DHT22;701;52.526;13.408;2023-07-31T07:42:45;21.10;21.30
1413;DHT22;701;52.526;13.408;2023-07-31T07:45:11;21.10;21.50
1413;DHT22;701;52.526;13.408;2023-07-31T07:47:38;21.10;21.50
1413;DHT22;701;52.526;13.408;2023-07-31T07:50:04;21.20;21.20
1413;DHT22;701;52.526;13.408;2023-07-31T07:52:30;21.40;20.80
1413;DHT22;701;52.526;13.408;2023-07-31T07:54:56;21.70;20.70
1413;DHT22;701;52.526;13.408;2023-07-31T07:57:21;21.80;20.00
1413;DHT22;701;52.526;13.408;2023-07-31T07:59:47;21.80;19.40
1413;DHT22;701;52.526;13.408;2023-07-31T08:02:13;21.80;19.10
1413;DHT22;701;52.526;13.408;2023-07-31T08:04:39;21.70;19.30
1413;DHT22;701;52.526;13.408;2023-07-31T08:07:04;21.70;19.20
1413;DHT22;701;52.526;13.408;2023-07-31T08:09:30;21.70;19.60
1413;DHT22;701;52.526;13.408;2023-07-31T08:11:56;21.70;19.50
1413;DHT22;701;52.526;13.408;2023-07-31T08:14:27;21.70;19.80
1413;DHT22;701;52.526;13.408;2023-07-31T08:16:53;21.60;19.80
1413;DHT22;701;52.526;13.408;2023-07-31T08:19:18;21.60;19.80
1413;DHT22;701;52.526;13.408;2023-07-31T08:21:44;21.50;19.90
1413;DHT22;701;52.526;13.408;2023-07-31T08:24:10;21.40;20.10
1413;DHT22;701;52.526;13.408;2023-07-31T08:26:36;21.40;20.20
1413;DHT22;701;52.526;13.408;2023-07-31T08:29:02;21.50;20.20
1413;DHT22;701;52.526;13.408;2023-07-31T08:31:28;21.50;20.10
1413;DHT22;701;52.526;13.408;2023-07-31T08:33:55;21.50;20.00
1413;DHT22;701;52.526;13.408;2023-07-31T08:36:21;21.40;20.30
1413;DHT22;701;52.526;13.408;2023-07-31T08:38:47;21.40;20.80
1413;DHT22;701;52.526;13.408;2023-07-31T08:41:13;21.40;20.80
1413;DHT22;701;52.526;13.408;2023-07-31T08:43:39;21.40;20.80
1413;DHT22;701;52.526;13.408;2023-07-31T08:46:05;21.30;20.80
1413;DHT22;701;52.526;13.408;2023-07-31T08:48:32;21.40;20.80
1413;DHT22;701;52.526;13.408;2023-07-31T08:50:58;21.50;20.90
1413;DHT22;701;52.526;13.408;2023-07-31T08:53:24;21.60;20.90
1413;DHT22;701;52.526;13.408;2023-07-31T08:55:53;21.70;21.00
1413;DHT22;701;52.526;13.408;2023-07-31T08:58:20;21.90;20.60
1413;DHT22;701;52.526;13.408;2023-07-31T09:00:47;22.10;20.30
1413;DHT22;701;52.526;13.408;2023-07-31T09:03:17;22.30;20.00
1413;DHT22;701;52.526;13.408;2023-07-31T09:05:45;22.40;19.20
1413;DHT22;701;52.526;13.408;2023-07-31T09:08:18;22.60;19.20
1413;DHT22;701;52.526;13.408;2023-07-31T09:10:45;22.70;18.50
1413;DHT22;701;52.526;13.408;2023-07-31T09:13:14;23.00;18.10
1413;DHT22;701;52.526;13.408;2023-07-31T09:15:42;23.20;17.30
1413;DHT22;701;52.526;13.408;2023-07-31T09:18:08;23.50;16.70
1413;DHT22;701;52.526;13.408;2023-07-31T09:20:35;23.60;15.90
1413;DHT22;701;52.526;13.408;2023-07-31T09:23:11;23.60;15.10
1413;DHT22;701;52.526;13.408;2023-07-31T09:25:39;23.50;15.10
1413;DHT22;701;52.526;13.408;2023-07-31T09:28:07;23.30;15.60
1413;DHT22;701;52.526;13.408;2023-07-31T09:30:50;23.20;16.00
1413;DHT22;701;52.526;13.408;2023-07-31T09:33:18;23.10;15.90
1413;DHT22;701;52.526;13.408;2023-07-31T09:35:50;22.90;16.30
1413;DHT22;701;52.526;13.408;2023-07-31T09:38:16;22.60;17.20
1413;DHT22;701;52.526;13.408;2023-07-31T09:40:45;22.30;17.70
1413;DHT22;701;52.526;13.408;2023-07-31T09:46:20;21.70;19.50
1413;DHT22;701;52.526;13.408;2023-07-31T09:48:46;21.50;19.90
1413;DHT22;701;52.526;13.408;2023-07-31T09:51:12;21.40;20.20
1413;DHT22;701;52.526;13.408;2023-07-31T09:53:38;21.40;20.80
1413;DHT22;701;52.526;13.408;2023-07-31T09:56:05;21.40;20.80
1413;DHT22;701;52.526;13.408;2023-07-31T09:58:34;21.40;20.80
1413;DHT22;701;52.526;13.408;2023-07-31T10:01:02;21.50;20.90
1413;DHT22;701;52.526;13.408;2023-07-31T10:03:29;21.50;20.80
1413;DHT22;701;52.526;13.408;2023-07-31T10:05:58;21.60;20.40
1413;DHT22;701;52.526;13.408;2023-07-31T10:08:28;21.60;20.30
1413;DHT22;701;52.526;13.408;2023-07-31T10:10:58;21.70;20.50
1413;DHT22;701;52.526;13.408;2023-07-31T10:13:25;21.80;20.20
1413;DHT22;701;52.526;13.408;2023-07-31T10:15:53;22.20;19.80
1413;DHT22;701;52.526;13.408;2023-07-31T10:18:20;22.50;19.60
1413;DHT22;701;52.526;13.408;2023-07-31T10:20:47;22.80;18.20
1413;DHT22;701;52.526;13.408;2023-07-31T10:23:13;22.80;17.50
1413;DHT22;701;52.526;13.408;2023-07-31T10:25:40;22.80;17.20
1413;DHT22;701;52.526;13.408;2023-07-31T10:28:06;22.70;17.50
1413;DHT22;701;52.526;13.408;2023-07-31T10:30:33;22.50;17.80
1413;DHT22;701;52.526;13.408;2023-07-31T10:33:00;22.30;18.00
1413;DHT22;701;52.526;13.408;2023-07-31T10:35:28;22.20;18.80
1413;DHT22;701;52.526;13.408;2023-07-31T10:37:53;22.30;19.20
1413;DHT22;701;52.526;13.408;2023-07-31T10:40:24;22.40;19.30
1413;DHT22;701;52.526;13.408;2023-07-31T10:42:56;22.50;19.40
1413;DHT22;701;52.526;13.408;2023-07-31T10:48:06;22.50;19.00
1413;DHT22;701;52.526;13.408;2023-07-31T10:50:37;22.60;19.00
1413;DHT22;701;52.526;13.408;2023-07-31T10:53:03;22.90;18.90
1413;DHT22;701;52.526;13.408;2023-07-31T10:55:31;23.40;18.40
1413;DHT22;701;52.526;13.408;2023-07-31T10:58:10;24.10;16.90
1413;DHT22;701;52.526;13.408;2023-07-31T11:00:39;24.80;15.00
1413;DHT22;701;52.526;13.408;2023-07-31T11:03:10;25.20;14.10
1413;DHT22;701;52.526;13.408;2023-07-31T11:08:28;25.80;11.40
1413;DHT22;701;52.526;13.408;2023-07-31T11:13:33;26.40;10.00
1413;DHT22;701;52.526;13.408;2023-07-31T11:15:59;26.30;9.00
1413;DHT22;701;52.526;13.408;2023-07-31T11:18:28;26.20;8.50
1413;DHT22;701;52.526;13.408;2023-07-31T11:20:54;26.00;8.80
1413;DHT22;701;52.526;13.408;2023-07-31T11:23:21;25.90;9.30
1413;DHT22;701;52.526;13.408;2023-07-31T11:25:47;25.80;8.90
1413;DHT22;701;52.526;13.408;2023-07-31T11:28:14;25.70;9.20
1413;DHT22;701;52.526;13.408;2023-07-31T11:30:42;25.80;9.20
1413;DHT22;701;52.526;13.408;2023-07-31T11:33:10;25.70;9.10
1413;DHT22;701;52.526;13.408;2023-07-31T11:38:07;25.60;8.50
1413;DHT22;701;52.526;13.408;2023-07-31T11:40:42;25.50;8.60
1413;DHT22;701;52.526;13.408;2023-07-31T11:43:08;25.50;8.20
1413;DHT22;701;52.526;13.408;2023-07-31T11:45:33;25.30;8.00
1413;DHT22;701;52.526;13.408;2023-07-31T11:48:01;25.10;8.00
1413;DHT22;701;52.526;13.408;2023-07-31T11:50:27;24.90;8.30
1413;DHT22;701;52.526;13.408;2023-07-31T11:52:57;24.80;8.50
1413;DHT22;701;52.526;13.408;2023-07-31T11:55:24;24.70;8.70
1413;DHT22;701;52.526;13.408;2023-07-31T11:57:51;24.70;8.60
1413;DHT22;701;52.526;13.408;2023-07-31T12:00:18;24.60;8.10
1413;DHT22;701;52.526;13.408;2023-07-31T12:02:44;24.50;8.30
1413;DHT22;701;52.526;13.408;2023-07-31T12:05:13;24.40;8.40
1413;DHT22;701;52.526;13.408;2023-07-31T12:10:21;24.30;9.00
1413;DHT22;701;52.526;13.408;2023-07-31T12:12:56;24.20;9.20
1413;DHT22;701;52.526;13.408;2023-07-31T12:15:22;24.20;9.40
1413;DHT22;701;52.526;13.408;2023-07-31T12:17:53;24.20;9.40
1413;DHT22;701;52.526;13.408;2023-07-31T12:20:20;24.30;9.40
1413;DHT22;701;52.526;13.408;2023-07-31T12:22:46;24.30;9.20
1413;DHT22;701;52.526;13.408;2023-07-31T12:25:15;24.50;9.10
1413;DHT22;701;52.526;13.408;2023-07-31T12:27:44;24.60;8.80
1413;DHT22;701;52.526;13.408;2023-07-31T12:30:28;24.80;8.60
1413;DHT22;701;52.526;13.408;2023-07-31T12:32:54;24.80;7.50
1413;DHT22;701;52.526;13.408;2023-07-31T12:35:20;24.80;7.80
1413;DHT22;701;52.526;13.408;2023-07-31T12:37:46;24.70;7.70
1413;DHT22;701;52.526;13.408;2023-07-31T12:40:11;24.80;7.80
1413;DHT22;701;52.526;13.408;2023-07-31T12:42:38;24.90;7.40
1413;DHT22;701;52.526;13.408;2023-07-31T12:45:04;25.10;7.10
1413;DHT22;701;52.526;13.408;2023-07-31T12:47:30;25.20;6.80
1413;DHT22;701;52.526;13.408;2023-07-31T12:49:55;25.30;6.20
1413;DHT22;701;52.526;13.408;2023-07-31T12:52:21;25.50;6.00
1413;DHT22;701;52.526;13.408;2023-07-31T12:54:47;25.70;5.80
1413;DHT22;701;52.526;13.408;2023-07-31T12:57:12;25.80;5.70
1413;DHT22;701;52.526;13.408;2023-07-31T12:59:38;26.00;5.60
1413;DHT22;701;52.526;13.408;2023-07-31T13:02:04;26.10;5.30
1413;DHT22;701;52.526;13.408;2023-07-31T13:04:30;26.10;5.00
1413;DHT22;701;52.526;13.408;2023-07-31T13:06:56;26.00;5.00
1413;DHT22;701;52.526;13.408;2023-07-31T13:09:21;25.90;5.10
1413;DHT22;701;52.526;13.408;2023-07-31T13:11:47;25.50;5.50
1413;DHT22;701;52.526;13.408;2023-07-31T13:14:13;25.30;6.50
1413;DHT22;701;52.526;13.408;2023-07-31T13:16:38;25.10;7.10
1413;DHT22;701;52.526;13.408;2023-07-31T13:19:04;25.00;7.40
1413;DHT22;701;52.526;13.408;2023-07-31T13:21:30;25.10;7.90
1413;DHT22;701;52.526;13.408;2023-07-31T13:23:56;25.10;7.60
1413;DHT22;701;52.526;13.408;2023-07-31T13:26:23;25.20;7.40
1413;DHT22;701;52.526;13.408;2023-07-31T13:28:49;25.30;7.30
1413;DHT22;701;52.526;13.408;2023-07-31T13:31:14;25.30;7.30
1413;DHT22;701;52.526;13.408;2023-07-31T13:33:40;25.40;7.60
1413;DHT22;701;52.526;13.408;2023-07-31T13:36:06;25.30;7.40
1413;DHT22;701;52.526;13.408;2023-07-31T13:38:32;25.30;7.30
1413;DHT22;701;52.526;13.408;2023-07-31T13:40:57;25.30;7.30
1413;DHT22;701;52.526;13.408;2023-07-31T13:43:24;25.20;7.30
1413;DHT22;701;52.526;13.408;2023-07-31T13:45:49;25.20;7.00
1413;DHT22;701;52.526;13.408;2023-07-31T13:48:15;25.20;7.00
1413;DHT22;701;52.526;13.408;2023-07-31T13:50:41;25.30;6.70
1413;DHT22;701;52.526;13.408;2023-07-31T13:53:07;25.30;6.60
1413;DHT22;701;52.526;13.408;2023-07-31T13:55:32;25.40;6.70
1413;DHT22;701;52.526;13.408;2023-07-31T13:57:58;25.50;6.20
1413;DHT22;701;52.526;13.408;2023-07-31T14:00:24;25.60;6.10
1413;DHT22;701;52.526;13.408;2023-07-31T14:02:49;25.70;5.90
1413;DHT22;701;52.526;13.408;2023-07-31T14:05:15;25.80;5.90
1413;DHT22;701;52.526;13.408;2023-07-31T14:07:41;25.70;5.70
1413;DHT22;701;52.526;13.408;2023-07-31T14:10:07;25.50;5.80
1413;DHT22;701;52.526;13.408;2023-07-31T14:12:33;25.50;6.10
1413;DHT22;701;52.526;13.408;2023-07-31T14:14:58;25.50;6.50
1413;DHT22;701;52.526;13.408;2023-07-31T14:17:24;25.40;6.20
1413;DHT22;701;52.526;13.408;2023-07-31T14:19:50;25.40;6.20
1413;DHT22;701;52.526;13.408;2023-07-31T14:22:26;25.30;6.40
1413;DHT22;701;52.526;13.408;2023-07-31T14:24:52;25.30;6.60
1413;DHT22;701;52.526;13.408;2023-07-31T14:27:18;25.30;6.60
1413;DHT22;701;52.526;13.408;2023-07-31T14:29:43;25.30;6.80
1413;DHT22;701;52.526;13.408;2023-07-31T14:32:09;25.20;6.80
1413;DHT22;701;52.526;13.408;2023-07-31T14:34:35;25.20;6.80
1413;DHT22;701;52.526;13.408;2023-07-31T14:37:00;25.10;7.00
1413;DHT22;701;52.526;13.408;2023-07-31T14:39:26;25.10;6.90
1413;DHT22;701;52.526;13.408;2023-07-31T14:41:52;25.10;6.80
1413;DHT22;701;52.526;13.408;2023-07-31T14:44:17;25.10;6.70
1413;DHT22;701;52.526;13.408;2023-07-31T14:46:43;25.00;6.80
1413;DHT22;701;52.526;13.408;2023-07-31T14:49:09;25.00;7.00
1413;DHT22;701;52.526;13.408;2023-07-31T14:51:35;24.90;6.70
1413;DHT22;701;52.526;13.408;2023-07-31T14:54:00;24.90;6.90
1413;DHT22;701;52.526;13.408;2023-07-31T14:56:26;24.90;6.80
1413;DHT22;701;52.526;13.408;2023-07-31T14:58:53;24.80;6.80
1413;DHT22;701;52.526;13.408;2023-07-31T15:01:19;24.80;6.90
1413;DHT22;701;52.526;13.408;2023-07-31T15:03:45;24.60;6.80
1413;DHT22;701;52.526;13.408;2023-07-31T15:06:10;24.60;6.90
1413;DHT22;701;52.526;13.408;2023-07-31T15:08:38;24.50;7.00
1413;DHT22;701;52.526;13.408;2023-07-31T15:11:04;24.40;7.10
1413;DHT22;701;52.526;13.408;2023-07-31T15:13:30;24.30;7.50
1413;DHT22;701;52.526;13.408;2023-07-31T15:15:56;24.20;7.40
1413;DHT22;701;52.526;13.408;2023-07-31T15:18:23;24.10;7.30
1413;DHT22;701;52.526;13.408;2023-07-31T15:20:49;24.00;7.20
1413;DHT22;701;52.526;13.408;2023-07-31T15:23:15;23.90;7.70
1413;DHT22;701;52.526;13.408;2023-07-31T15:25:40;23.90;8.20
1413;DHT22;701;52.526;13.408;2023-07-31T15:28:06;23.90;8.60
1413;DHT22;701;52.526;13.408;2023-07-31T15:30:32;23.90;8.90
1413;DHT22;701;52.526;13.408;2023-07-31T15:32:59;24.10;9.30
1413;DHT22;701;52.526;13.408;2023-07-31T15:35:24;24.20;9.70
1413;DHT22;701;52.526;13.408;2023-07-31T15:37:50;24.30;9.00
1413;DHT22;701;52.526;13.408;2023-07-31T15:40:16;24.30;8.70
1413;DHT22;701;52.526;13.408;2023-07-31T15:42:42;24.20;8.60
1413;DHT22;701;52.526;13.408;2023-07-31T15:45:08;24.20;8.60
1413;DHT22;701;52.526;13.408;2023-07-31T15:47:36;24.10;8.60
1413;DHT22;701;52.526;13.408;2023-07-31T15:50:01;24.10;8.80
1413;DHT22;701;52.526;13.408;2023-07-31T15:52:27;24.10;8.90
1413;DHT22;701;52.526;13.408;2023-07-31T15:54:53;24.20;9.00
1413;DHT22;701;52.526;13.408;2023-07-31T15:57:19;24.20;8.90
1413;DHT22;701;52.526;13.408;2023-07-31T15:59:44;24.20;8.90
1413;DHT22;701;52.526;13.408;2023-07-31T16:02:10;24.20;9.10
1413;DHT22;701;52.526;13.408;2023-07-31T16:04:37;24.10;9.20
1413;DHT22;701;52.526;13.408;2023-07-31T16:07:03;24.10;9.40
1413;DHT22;701;52.526;13.408;2023-07-31T16:09:28;24.00;9.70
1413;DHT22;701;52.526;13.408;2023-07-31T16:11:54;23.90;9.80
1413;DHT22;701;52.526;13.408;2023-07-31T16:14:20;23.80;9.90
1413;DHT22;701;52.526;13.408;2023-07-31T16:16:46;23.80;10.10
1413;DHT22;701;52.526;13.408;2023-07-31T16:19:13;23.80;10.20
1413;DHT22;701;52.526;13.408;2023-07-31T16:21:39;23.80;10.30
1413;DHT22;701;52.526;13.408;2023-07-31T16:24:04;23.70;10.40
1413;DHT22;701;52.526;13.408;2023-07-31T16:26:31;23.60;10.70
1413;DHT22;701;52.526;13.408;2023-07-31T16:28:56;23.60;11.00